Kezdőlap
METAR-TAF:

METAR-TAF

Repülőterek :

Zaqatala, Azerbajdzsán

földrajzi szélesség: 41-33-44N, földrajzi hosszúság: 46-40-02E, magasság: 330 m

Jelenlegi meteorológiai megfigyelések

A jelentés 22 perccel ezelõtt készült, 22:00 UTC
Különbözõ irányokból fújó szél 2 kt
Hőmérséklet 9°C
Páratartalom 100%
Légköri nyomás 1025 hPa
Látótávolság: 0800 m
köd

METAR: UBBY 162200Z VRB02KT 0800 R33/P1600 FG VV002 09/09 Q1025 R33/////// NOSIG RMK MT OBSC

Idő: 02:22 (22:22 UTC)

Előrejelzés

A jelentés 2 órával és 22 perccel ezelõtt készült, 20:00 UTC
Az előrejelzés 16-én 21 óra UTC és 17-én 06 óra UTC között érvényes
Különbözõ irányokból fújó szél 2 kt
Látótávolság: 0300 m
200 lábon
szitálás, köd
16-én 23 óra UTC és 17-én 02 óra UTC között ideiglenes
Látótávolság: 1000 m
Borult 300 lábon
Párásság

TAF: UBBY 162000Z 1621/1706 VRB02KT 0300 DZ FG VV002 TEMPO 1623/1702 1000 BR OVC003

Meteorológiai megfigyelések és előrejelzések több, mint 4000 repülőtéren (METAR és TAF jelentéseket).

A térképen piros és sárga pontok jelzik az elérhető meteorológiai állomásokat.

Mozgassa az egeret a pont fölött, hogy megjelenjen az állomás neve.

Azután kattintson az időjárási megfigyelések és előrejelzések megtekintéséhez.

A térkép megváltoztatása: kattintson a fekete keresztel jelölt zöld gombra ráközelítéshez, a vonallal jelölt zöld gombra távolításhoz, vagy a zöld nyilakra a szomszédos térképek eléréséhez.


METAR-TAF: